St Ives, United Kingdom
Current Conditions -  °F | °C
As of 7:50 AM on Tuesday 21 Oct 2014 (Local Time) from EGDR Reporting Station
Haze Haze  
Wind Chill: 54°   Ceiling: 4000
Heat Index: 54°   Visibility: 6mi
Dew Point: 45°   Wind: 21mph
Humidity: 72%   Direction: 290°WNW
Pressure: 29.85"   Gusts: 38mph
Location:  50.21°N, 5.49°W
Report Text: EGDR 210650Z 29018G33KT 9999 HZ FEW014 SCT024 BKN040 12/07 Q1011 WHT TEMPO -SHRA SCT012 GRN
Loading
Personal Weather Stations






























Interactive Weather Map
Tropical Storm Tracking
New forecast layout! Learn more

10-Day Weather Forecast

Advertisements
Track Severe Weather on mobile